Time;durP1;ratioP1;P1;durP2;ratioP2;P2;SDS_P1;SDS_P2;PMS_P1;PMS_P2;Temp;Humidity;BMP_temperature;BMP_pressure;BME280_temperature;BME280_humidity;BME280_pressure;Samples;Min_cycle;Max_cycle;Signal;HPM_P1;HPM_P2
2023/07/27 00:01:45;;;;;;;9.38;5.65;;;21.60;99.90;;;;;;4936927;28;20075;-77
2023/07/27 00:04:12;;;;;;;7.53;5.47;;;21.40;99.90;;;;;;4926648;29;20122;-75
2023/07/27 00:06:41;;;;;;;9.05;5.80;;;21.30;99.90;;;;;;4942557;29;20133;-79
2023/07/27 00:09:09;;;;;;;6.75;4.72;;;21.30;99.90;;;;;;4949543;28;20557;-75
2023/07/27 00:11:36;;;;;;;7.68;5.50;;;21.40;99.90;;;;;;4949181;28;20051;-76
2023/07/27 00:14:04;;;;;;;6.95;5.10;;;21.10;99.90;;;;;;4963243;28;20118;-75
2023/07/27 00:16:31;;;;;;;7.93;5.65;;;21.20;99.90;;;;;;4939277;29;20051;-76
2023/07/27 00:18:59;;;;;;;7.40;4.97;;;21.20;99.90;;;;;;4957203;29;20051;-76
2023/07/27 00:21:27;;;;;;;8.68;5.05;;;21.20;99.90;;;;;;4939605;29;20135;-77
2023/07/27 00:23:54;;;;;;;6.93;5.18;;;21.20;99.90;;;;;;4939769;29;20789;-77
2023/07/27 00:26:23;;;;;;;7.65;5.13;;;21.30;99.90;;;;;;4956676;28;20122;-75
2023/07/27 00:28:50;;;;;;;7.38;5.50;;;21.40;99.90;;;;;;4956031;28;20055;-76
2023/07/27 00:31:18;;;;;;;7.55;5.00;;;21.30;99.90;;;;;;4955557;28;20534;-77
2023/07/27 00:33:48;;;;;;;6.45;4.47;;;21.40;99.90;;;;;;4948888;28;20053;-75
2023/07/27 00:36:16;;;;;;;7.75;4.72;;;21.30;99.90;;;;;;4954527;28;20063;-75
2023/07/27 00:38:43;;;;;;;7.65;4.85;;;21.20;99.90;;;;;;4955270;28;20049;-75
2023/07/27 00:41:10;;;;;;;7.32;4.88;;;21.20;99.90;;;;;;4949989;28;20142;-76
2023/07/27 00:43:42;;;;;;;7.40;4.72;;;21.20;99.90;;;;;;4955707;28;20530;-75
2023/07/27 00:46:10;;;;;;;7.45;5.10;;;21.30;99.90;;;;;;4955222;28;20055;-76
2023/07/27 00:48:39;;;;;;;12.30;5.22;;;21.10;99.90;;;;;;4955745;28;20083;-77
2023/07/27 00:51:08;;;;;;;6.43;4.35;;;21.20;99.90;;;;;;4954971;28;20078;-76
2023/07/27 00:53:36;;;;;;;6.60;4.70;;;21.10;99.90;;;;;;4965394;28;20058;-76
2023/07/27 00:56:05;;;;;;;8.13;5.82;;;21.10;99.90;;;;;;4955650;28;20074;-76
2023/07/27 00:58:32;;;;;;;8.10;4.88;;;21.10;99.90;;;;;;4954481;28;20130;-74
2023/07/27 01:01:03;;;;;;;7.30;4.63;;;21.40;99.90;;;;;;4955100;28;20047;-75
2023/07/27 01:03:30;;;;;;;9.18;4.68;;;21.80;99.90;;;;;;4954474;29;20055;-76
2023/07/27 01:05:58;;;;;;;6.70;4.70;;;21.70;99.90;;;;;;4953892;28;20047;-76
2023/07/27 01:08:25;;;;;;;8.60;5.30;;;21.30;99.90;;;;;;4955917;28;20499;-75
2023/07/27 01:11:02;;;;;;;7.55;5.60;;;21.00;99.90;;;;;;4957079;28;20053;-77
2023/07/27 01:13:54;;;;;;;7.07;5.22;;;21.70;99.90;;;;;;4952789;28;20043;-76
2023/07/27 01:16:38;;;;;;;7.13;4.88;;;22.00;99.90;;;;;;4954819;28;20067;-77
2023/07/27 01:19:32;;;;;;;8.57;4.50;;;21.30;99.90;;;;;;4954145;28;20063;-76
2023/07/27 01:22:32;;;;;;;7.80;4.57;;;20.90;99.90;;;;;;4944951;28;20458;-75
2023/07/27 01:25:24;;;;;;;6.45;4.18;;;20.50;99.90;;;;;;4933084;28;20146;-76
2023/07/27 01:28:12;;;;;;;6.82;4.55;;;20.10;99.90;;;;;;4932955;28;20069;-76
2023/07/27 01:30:50;;;;;;;7.80;4.40;;;19.80;99.90;;;;;;4956579;28;20687;-76
2023/07/27 01:33:24;;;;;;;6.90;4.00;;;19.60;99.90;;;;;;4934626;29;20063;-74
2023/07/27 01:36:10;;;;;;;6.03;3.75;;;19.40;99.90;;;;;;4937416;28;20094;-74
2023/07/27 01:38:41;;;;;;;6.50;4.28;;;19.40;99.90;;;;;;4954216;28;20059;-75
2023/07/27 01:41:10;;;;;;;5.88;3.20;;;19.40;99.90;;;;;;4944410;28;20059;-74
2023/07/27 01:43:41;;;;;;;6.22;4.00;;;19.30;99.90;;;;;;4936947;28;20055;-75
2023/07/27 01:46:11;;;;;;;7.65;3.65;;;19.30;99.90;;;;;;4955044;28;20051;-75
2023/07/27 01:48:40;;;;;;;7.37;4.00;;;19.40;99.90;;;;;;4953342;28;21167;-74
2023/07/27 01:51:09;;;;;;;8.30;3.85;;;19.40;99.90;;;;;;4956014;28;20059;-74
2023/07/27 01:53:39;;;;;;;4.75;3.38;;;19.30;99.90;;;;;;4944600;28;20130;-75
2023/07/27 01:56:07;;;;;;;5.80;3.60;;;19.50;99.90;;;;;;4936910;29;20055;-74
2023/07/27 01:58:36;;;;;;;8.00;3.50;;;19.40;99.90;;;;;;4953178;28;20348;-74
2023/07/27 02:01:05;;;;;;;4.78;3.47;;;19.30;99.90;;;;;;4936738;29;20142;-79
2023/07/27 02:03:36;;;;;;;6.30;3.22;;;19.40;99.90;;;;;;4936231;28;20102;-73
2023/07/27 02:06:04;;;;;;;5.00;3.50;;;19.40;99.90;;;;;;4953703;28;20048;-73
2023/07/27 02:08:31;;;;;;;4.72;3.17;;;19.40;99.90;;;;;;4952987;28;20094;-76
2023/07/27 02:11:06;;;;;;;5.25;3.40;;;19.30;99.90;;;;;;4936509;29;20055;-75
2023/07/27 02:13:42;;;;;;;6.50;3.72;;;19.40;99.90;;;;;;4937031;29;20110;-75
2023/07/27 02:16:40;;;;;;;7.15;3.40;;;19.50;99.90;;;;;;4936263;29;20059;-74
2023/07/27 02:19:09;;;;;;;5.03;3.28;;;19.30;99.90;;;;;;4936793;29;20087;-74
2023/07/27 02:21:38;;;;;;;5.05;3.42;;;19.30;99.90;;;;;;4936345;29;20070;-75
2023/07/27 02:24:06;;;;;;;4.68;3.08;;;19.40;99.90;;;;;;4954029;29;20075;-75
2023/07/27 02:26:34;;;;;;;5.30;3.28;;;19.30;99.90;;;;;;4953679;28;20051;-76
2023/07/27 02:29:02;;;;;;;5.85;3.58;;;19.30;99.90;;;;;;4936862;29;20483;-78
2023/07/27 02:31:30;;;;;;;5.15;3.47;;;19.30;99.90;;;;;;4921796;29;20058;-76
2023/07/27 02:33:57;;;;;;;4.88;3.40;;;19.40;99.90;;;;;;4936163;28;20051;-78
2023/07/27 02:36:24;;;;;;;5.38;3.20;;;19.30;99.90;;;;;;4937355;29;20563;-77
2023/07/27 02:38:54;;;;;;;5.87;3.73;;;19.30;99.90;;;;;;4936721;28;20408;-76
2023/07/27 02:41:21;;;;;;;7.60;3.38;;;19.30;99.90;;;;;;4954501;29;20102;-75
2023/07/27 02:43:51;;;;;;;6.85;3.90;;;19.40;99.90;;;;;;4937111;28;20059;-77
2023/07/27 02:46:19;;;;;;;6.97;3.55;;;19.30;99.90;;;;;;4920919;29;20558;-77
2023/07/27 02:48:46;;;;;;;4.57;3.30;;;19.40;99.90;;;;;;4937224;29;20150;-75
2023/07/27 02:51:13;;;;;;;5.75;3.60;;;19.10;99.90;;;;;;4954921;28;20501;-76
2023/07/27 02:53:40;;;;;;;5.25;3.67;;;18.80;99.90;;;;;;4943797;28;20142;-76
2023/07/27 02:56:08;;;;;;;4.65;3.50;;;19.00;99.90;;;;;;4938295;29;20127;-77
2023/07/27 02:58:35;;;;;;;5.68;3.97;;;18.70;99.90;;;;;;4954116;28;20524;-77
2023/07/27 03:01:03;;;;;;;7.38;3.90;;;18.60;99.90;;;;;;4954609;29;20431;-76
2023/07/27 03:03:32;;;;;;;5.53;3.85;;;18.70;99.90;;;;;;4954551;28;20135;-78
2023/07/27 03:06:01;;;;;;;5.50;3.97;;;18.60;99.90;;;;;;4925080;29;20074;-76
2023/07/27 03:08:29;;;;;;;5.18;3.97;;;18.60;99.90;;;;;;4957133;28;20557;-77
2023/07/27 03:11:06;;;;;;;6.18;4.10;;;18.60;99.90;;;;;;4939897;29;20047;-76
2023/07/27 03:13:33;;;;;;;6.13;4.57;;;18.60;99.90;;;;;;4958337;28;20094;-77
2023/07/27 03:16:04;;;;;;;5.95;4.03;;;18.70;99.90;;;;;;4957536;28;20426;-75
2023/07/27 03:18:31;;;;;;;;;;;18.90;99.90;;;;;;4955959;28;20040;-77
2023/07/27 03:21:02;;;;;;;7.45;4.40;;;18.60;99.90;;;;;;4956454;28;19954;-76
2023/07/27 03:23:30;;;;;;;5.47;4.00;;;18.80;99.90;;;;;;4956377;28;20468;-77
2023/07/27 03:25:58;;;;;;;5.53;4.00;;;18.90;99.90;;;;;;4925516;28;20071;-76
2023/07/27 03:28:26;;;;;;;5.85;3.97;;;18.90;99.90;;;;;;4956282;29;20051;-78
2023/07/27 03:30:53;;;;;;;5.32;3.85;;;19.00;99.90;;;;;;4937193;29;20079;-76
2023/07/27 03:33:21;;;;;;;5.38;3.83;;;19.20;99.90;;;;;;4932429;29;20075;-75
2023/07/27 03:35:48;;;;;;;5.95;4.65;;;19.10;99.90;;;;;;4940028;28;20456;-78
2023/07/27 03:38:15;;;;;;;5.88;3.95;;;19.00;99.90;;;;;;4923545;29;20137;-76
2023/07/27 03:40:43;;;;;;;6.30;4.20;;;19.60;99.90;;;;;;4956865;28;20052;-79
2023/07/27 03:43:10;;;;;;;7.10;4.22;;;19.50;99.90;;;;;;4939820;29;20083;-77
2023/07/27 03:45:38;;;;;;;6.32;4.18;;;19.00;99.90;;;;;;4940241;29;20055;-75
2023/07/27 03:48:05;;;;;;;6.05;4.60;;;19.40;99.90;;;;;;4956791;28;20130;-77
2023/07/27 03:50:32;;;;;;;6.45;4.30;;;19.00;99.90;;;;;;4939483;28;20499;-75
2023/07/27 03:52:59;;;;;;;6.18;4.03;;;19.40;99.90;;;;;;4939897;28;20125;-78
2023/07/27 03:55:27;;;;;;;5.60;3.97;;;19.60;99.90;;;;;;4972678;28;20055;-77
2023/07/27 03:57:54;;;;;;;5.90;3.65;;;20.40;99.90;;;;;;4936390;29;20058;-78
2023/07/27 04:00:21;;;;;;;5.40;3.80;;;20.50;99.90;;;;;;4936886;28;20134;-76
2023/07/27 04:02:49;;;;;;;5.18;3.95;;;20.30;99.90;;;;;;4957198;28;20414;-77
2023/07/27 04:05:18;;;;;;;6.28;4.35;;;19.20;99.90;;;;;;4939505;29;20102;-76
2023/07/27 04:07:49;;;;;;;5.53;4.25;;;19.30;99.90;;;;;;4957781;29;20558;-77
2023/07/27 04:10:17;;;;;;;5.10;3.55;;;19.50;99.90;;;;;;4939935;29;20130;-74
2023/07/27 04:12:44;;;;;;;5.03;4.05;;;19.20;99.90;;;;;;4956575;28;20047;-75
2023/07/27 04:15:11;;;;;;;5.22;3.80;;;19.20;99.90;;;;;;4933953;29;20395;-78
2023/07/27 04:17:39;;;;;;;5.57;3.88;;;19.20;99.90;;;;;;4913252;29;20052;-76
2023/07/27 04:20:08;;;;;;;5.38;3.50;;;19.30;99.90;;;;;;4955376;28;20063;-77
2023/07/27 04:22:35;;;;;;;5.78;3.40;;;19.40;99.90;;;;;;4939585;29;20447;-76
2023/07/27 04:25:03;;;;;;;4.72;3.22;;;19.30;99.90;;;;;;4951082;28;20154;-81
2023/07/27 04:27:30;;;;;;;4.13;2.80;;;19.40;99.90;;;;;;4962619;28;20055;-77
2023/07/27 04:29:58;;;;;;;5.25;3.08;;;20.10;99.90;;;;;;4957142;29;20057;-75
2023/07/27 04:32:27;;;;;;;4.13;2.83;;;19.90;99.90;;;;;;4939898;29;20043;-76
2023/07/27 04:34:57;;;;;;;6.93;2.80;;;20.20;99.90;;;;;;4957721;28;20483;-75
2023/07/27 04:37:24;;;;;;;4.82;3.42;;;20.40;99.90;;;;;;4915784;29;20051;-76
2023/07/27 04:39:51;;;;;;;7.70;5.47;;;20.60;98.40;;;;;;4938561;29;20098;-79
2023/07/27 04:42:19;;;;;;;4.80;3.38;;;20.30;98.70;;;;;;4954269;28;20074;-76
2023/07/27 04:44:46;;;;;;;4.30;2.88;;;20.00;99.10;;;;;;4943670;29;20067;-80
2023/07/27 04:47:13;;;;;;;4.50;3.10;;;19.70;99.90;;;;;;4954048;28;20044;-76
2023/07/27 04:49:40;;;;;;;3.50;2.30;;;19.80;99.80;;;;;;4954896;28;20146;-75
2023/07/27 04:52:08;;;;;;;4.20;2.80;;;19.80;99.20;;;;;;4938241;28;20051;-75
2023/07/27 04:54:35;;;;;;;4.70;2.90;;;19.60;99.10;;;;;;4941837;29;20499;-80
2023/07/27 04:57:02;;;;;;;3.92;2.83;;;19.90;98.90;;;;;;4922229;28;20055;-75
2023/07/27 04:59:30;;;;;;;4.00;2.50;;;19.80;99.00;;;;;;4943718;29;20051;-75
2023/07/27 05:01:57;;;;;;;5.68;2.85;;;19.70;99.20;;;;;;4954980;28;20106;-75
2023/07/27 05:04:24;;;;;;;3.65;2.53;;;19.70;99.40;;;;;;4939934;29;20050;-75
2023/07/27 05:06:52;;;;;;;7.95;5.43;;;19.80;98.40;;;;;;4937352;29;20047;-75
2023/07/27 05:09:19;;;;;;;6.78;4.30;;;19.80;98.20;;;;;;4954206;28;20055;-75
2023/07/27 05:11:46;;;;;;;14.80;9.80;;;19.80;98.20;;;;;;4938804;29;20230;-80
2023/07/27 05:14:13;;;;;;;12.23;8.25;;;19.80;98.20;;;;;;4958545;28;20399;-78
2023/07/27 05:16:41;;;;;;;9.43;5.90;;;20.00;98.20;;;;;;4942588;29;20542;-77
2023/07/27 05:19:08;;;;;;;8.05;3.80;;;19.80;98.30;;;;;;4932546;28;20051;-79
2023/07/27 05:21:35;;;;;;;4.05;2.80;;;19.70;98.00;;;;;;4955866;28;20498;-76
2023/07/27 05:24:03;;;;;;;4.53;2.65;;;19.80;97.90;;;;;;4954233;28;20055;-76
2023/07/27 05:26:30;;;;;;;5.95;2.60;;;19.60;97.90;;;;;;4936940;28;20133;-75
2023/07/27 05:28:58;;;;;;;6.15;2.70;;;19.80;98.10;;;;;;4955832;29;20134;-76
2023/07/27 05:31:26;;;;;;;6.55;3.08;;;19.90;96.90;;;;;;4930787;28;20134;-77
2023/07/27 05:33:54;;;;;;;4.85;3.40;;;19.80;97.00;;;;;;4958337;28;20143;-75
2023/07/27 05:36:21;;;;;;;9.90;4.90;;;20.10;96.50;;;;;;4945981;29;20051;-74
2023/07/27 05:38:48;;;;;;;16.35;7.93;;;20.30;96.60;;;;;;4936870;28;20062;-76
2023/07/27 05:41:15;;;;;;;5.88;3.03;;;20.20;96.30;;;;;;4956804;28;20665;-75
2023/07/27 05:43:44;;;;;;;7.75;3.35;;;19.90;95.30;;;;;;4942669;28;20042;-75
2023/07/27 05:46:14;;;;;;;9.52;3.53;;;19.70;95.40;;;;;;4943107;28;20078;-75
2023/07/27 05:48:41;;;;;;;7.90;2.90;;;19.70;94.90;;;;;;4954332;28;20155;-76
2023/07/27 05:51:09;;;;;;;5.50;3.17;;;19.70;95.20;;;;;;4953830;28;20054;-74
2023/07/27 05:53:56;;;;;;;10.20;5.20;;;19.80;94.80;;;;;;4955594;28;20137;-77
2023/07/27 05:56:23;;;;;;;4.95;2.97;;;19.60;95.10;;;;;;4937058;29;20175;-76
2023/07/27 05:58:51;;;;;;;6.78;2.85;;;19.70;94.90;;;;;;4954298;29;20051;-78
2023/07/27 06:01:18;;;;;;;5.72;3.35;;;19.90;94.60;;;;;;4953982;28;20122;-76
2023/07/27 06:03:45;;;;;;;10.88;4.25;;;20.50;94.90;;;;;;4943232;28;20051;-77
2023/07/27 06:06:32;;;;;;;7.85;3.10;;;20.80;95.70;;;;;;4933259;29;20050;-80
2023/07/27 06:09:00;;;;;;;8.13;3.38;;;20.30;96.90;;;;;;4925046;29;20058;-78
2023/07/27 06:11:28;;;;;;;9.77;3.67;;;20.10;97.90;;;;;;4926909;29;20466;-78
2023/07/27 06:13:55;;;;;;;6.80;3.40;;;20.20;98.00;;;;;;4954810;28;20114;-79
2023/07/27 06:16:24;;;;;;;5.57;3.65;;;20.10;98.00;;;;;;4953698;28;20483;-77
2023/07/27 06:18:51;;;;;;;5.13;2.80;;;20.10;96.00;;;;;;4923204;29;20139;-77
2023/07/27 06:21:18;;;;;;;4.72;3.30;;;20.10;94.50;;;;;;4953985;28;20403;-77
2023/07/27 06:23:46;;;;;;;4.90;2.60;;;20.40;94.30;;;;;;4928409;29;20102;-80
2023/07/27 06:26:14;;;;;;;4.97;2.60;;;19.90;94.30;;;;;;4929925;28;20134;-78
2023/07/27 06:28:42;;;;;;;3.97;2.40;;;19.90;94.40;;;;;;4941663;28;20454;-78
2023/07/27 06:31:09;;;;;;;3.40;2.22;;;20.00;93.00;;;;;;4950124;29;20745;-79
2023/07/27 06:33:36;;;;;;;6.22;2.40;;;20.00;92.10;;;;;;4950404;28;20392;-78
2023/07/27 06:36:07;;;;;;;4.00;2.33;;;20.30;92.20;;;;;;4953057;28;20158;-78
2023/07/27 06:38:34;;;;;;;3.47;2.42;;;19.90;93.30;;;;;;4963691;28;20058;-78
2023/07/27 06:41:01;;;;;;;6.63;2.92;;;19.60;93.30;;;;;;4955578;29;20039;-78
2023/07/27 06:43:47;;;;;;;4.53;2.58;;;19.90;93.10;;;;;;4957783;28;20256;-77
2023/07/27 06:46:16;;;;;;;10.73;2.38;;;19.30;93.20;;;;;;4942037;29;20106;-78
2023/07/27 06:48:43;;;;;;;4.07;2.60;;;19.30;93.90;;;;;;4958661;28;20511;-77
2023/07/27 06:51:12;;;;;;;4.78;2.40;;;19.40;93.50;;;;;;4941622;29;20059;-77
2023/07/27 06:53:41;;;;;;;5.68;2.45;;;19.60;93.20;;;;;;4935280;28;20051;-79
2023/07/27 06:56:10;;;;;;;10.02;2.35;;;19.70;93.00;;;;;;4938258;29;20534;-80
2023/07/27 06:58:38;;;;;;;5.70;2.77;;;19.70;92.90;;;;;;4922754;28;20106;-79
2023/07/27 07:01:06;;;;;;;3.38;2.15;;;20.00;92.90;;;;;;4935242;29;20278;-78
2023/07/27 07:03:34;;;;;;;3.80;2.50;;;19.80;91.90;;;;;;4939054;29;20043;-79
2023/07/27 07:06:02;;;;;;;4.45;2.15;;;19.70;92.30;;;;;;4969807;28;20089;-79
2023/07/27 07:08:30;;;;;;;4.45;2.13;;;19.60;92.20;;;;;;4945578;28;20058;-79
2023/07/27 07:10:58;;;;;;;4.72;2.50;;;19.80;92.80;;;;;;4959109;29;20130;-78
2023/07/27 07:13:26;;;;;;;4.05;2.45;;;19.70;92.60;;;;;;4969683;28;20447;-78
2023/07/27 07:15:54;;;;;;;3.00;2.13;;;19.80;92.80;;;;;;4958417;28;20075;-78
2023/07/27 07:18:21;;;;;;;3.65;2.17;;;19.60;92.30;;;;;;4958494;28;20065;-76
2023/07/27 07:20:49;;;;;;;12.13;2.85;;;19.70;92.30;;;;;;4958289;29;20146;-76
2023/07/27 07:23:19;;;;;;;;;;;19.70;91.60;;;;;;4957822;28;20047;-78
2023/07/27 07:25:46;;;;;;;7.30;2.22;;;19.70;91.60;;;;;;4941144;28;20017;-82
2023/07/27 07:28:14;;;;;;;7.53;3.05;;;19.60;91.30;;;;;;4957987;28;20075;-77
2023/07/27 07:30:41;;;;;;;3.97;2.60;;;19.80;91.40;;;;;;4957941;28;20059;-78
2023/07/27 07:33:09;;;;;;;8.32;2.88;;;20.10;90.70;;;;;;4922947;29;20079;-77
2023/07/27 07:35:38;;;;;;;4.60;2.47;;;20.50;88.90;;;;;;4937233;29;20051;-77
2023/07/27 07:38:06;;;;;;;3.77;2.63;;;20.80;88.60;;;;;;4957958;29;20118;-77
2023/07/27 07:40:34;;;;;;;3.92;2.70;;;21.00;86.80;;;;;;4943535;28;20360;-79
2023/07/27 07:43:02;;;;;;;7.32;3.15;;;20.80;87.30;;;;;;4969627;28;20130;-78
2023/07/27 07:45:33;;;;;;;4.30;2.50;;;20.50;88.90;;;;;;4961397;28;20047;-80
2023/07/27 07:48:02;;;;;;;4.10;2.50;;;20.70;90.20;;;;;;4951585;29;20055;-81
2023/07/27 07:50:30;;;;;;;4.32;2.38;;;20.90;89.00;;;;;;4941630;29;20423;-78
2023/07/27 07:52:58;;;;;;;3.58;2.50;;;21.20;89.10;;;;;;4947162;29;20456;-79
2023/07/27 07:55:26;;;;;;;6.05;2.47;;;20.90;89.50;;;;;;4929917;29;20070;-78
2023/07/27 07:57:56;;;;;;;4.75;2.42;;;21.10;89.10;;;;;;4927735;29;20130;-78
2023/07/27 08:00:24;;;;;;;5.93;2.50;;;21.10;90.00;;;;;;4952993;29;20086;-81
2023/07/27 08:02:52;;;;;;;5.35;2.85;;;21.00;89.80;;;;;;4945037;29;20563;-79
2023/07/27 08:05:24;;;;;;;4.38;2.85;;;20.70;88.20;;;;;;4941073;29;20063;-78
2023/07/27 08:07:54;;;;;;;4.90;2.95;;;20.70;88.50;;;;;;4908891;29;20047;-78
2023/07/27 08:10:22;;;;;;;9.30;3.67;;;20.70;89.20;;;;;;4941878;29;20461;-79
2023/07/27 08:12:49;;;;;;;5.82;3.95;;;20.90;90.00;;;;;;4941565;29;20051;-77
2023/07/27 08:15:17;;;;;;;6.70;3.47;;;21.30;87.00;;;;;;4937824;29;20505;-79
2023/07/27 08:17:46;;;;;;;6.45;3.97;;;21.30;86.80;;;;;;4953533;29;20106;-78
2023/07/27 08:20:21;;;;;;;4.97;3.40;;;21.40;86.50;;;;;;4930289;29;20052;-78
2023/07/27 08:23:05;;;;;;;7.10;3.65;;;21.30;86.90;;;;;;4927336;29;20039;-77
2023/07/27 08:25:39;;;;;;;6.22;3.55;;;21.20;86.10;;;;;;4943454;29;20160;-78
2023/07/27 08:28:07;;;;;;;8.13;3.42;;;21.40;85.90;;;;;;4934333;29;20044;-78
2023/07/27 08:30:34;;;;;;;13.23;3.88;;;21.70;84.80;;;;;;4940486;29;20079;-78
2023/07/27 08:33:02;;;;;;;5.78;3.50;;;21.60;84.80;;;;;;4927674;29;20052;-78
2023/07/27 08:35:29;;;;;;;4.32;3.20;;;21.70;84.50;;;;;;4938373;29;20130;-78
2023/07/27 08:37:57;;;;;;;6.20;3.60;;;21.60;85.20;;;;;;4938483;29;20093;-78
2023/07/27 08:40:27;;;;;;;6.68;3.53;;;21.80;85.50;;;;;;4939463;29;20056;-78
2023/07/27 08:42:55;;;;;;;6.57;3.63;;;22.10;85.10;;;;;;4938762;29;20047;-78
2023/07/27 08:45:40;;;;;;;9.27;3.60;;;21.70;86.00;;;;;;4938673;29;20043;-78
2023/07/27 08:48:08;;;;;;;5.47;3.63;;;21.70;85.90;;;;;;4921279;29;20055;-78
2023/07/27 08:50:36;;;;;;;5.90;3.80;;;21.70;86.60;;;;;;4926460;29;20058;-78
2023/07/27 08:53:15;;;;;;;5.00;3.65;;;21.80;86.80;;;;;;4955626;29;20055;-78
2023/07/27 08:55:43;;;;;;;4.63;3.40;;;22.10;86.50;;;;;;4941908;29;20398;-78
2023/07/27 08:58:11;;;;;;;5.28;3.72;;;22.10;85.40;;;;;;4934821;29;20131;-78
2023/07/27 09:00:39;;;;;;;7.63;3.58;;;22.00;85.40;;;;;;4943939;29;20142;-77
2023/07/27 09:03:08;;;;;;;6.50;3.83;;;22.30;85.50;;;;;;4943738;28;20055;-78
2023/07/27 09:05:55;;;;;;;5.28;3.55;;;22.40;85.10;;;;;;4938692;28;20475;-78
2023/07/27 09:08:22;;;;;;;5.50;3.50;;;22.60;83.80;;;;;;4937069;29;20047;-77
2023/07/27 09:10:50;;;;;;;5.65;3.65;;;22.70;83.60;;;;;;4940199;29;20063;-76
2023/07/27 09:13:18;;;;;;;7.30;3.70;;;22.70;82.10;;;;;;4941755;29;20047;-77
2023/07/27 09:15:50;;;;;;;6.68;3.83;;;22.40;80.90;;;;;;4940455;29;20110;-78
2023/07/27 09:18:21;;;;;;;4.78;3.42;;;22.50;80.90;;;;;;4938740;29;20048;-78
2023/07/27 09:20:48;;;;;;;6.97;4.38;;;22.80;80.50;;;;;;4938584;29;20127;-81
2023/07/27 09:23:20;;;;;;;5.85;3.40;;;22.90;80.30;;;;;;4935783;29;20505;-82
2023/07/27 09:25:53;;;;;;;5.75;3.60;;;23.10;79.70;;;;;;4947772;28;20051;-79
2023/07/27 09:28:25;;;;;;;6.28;3.42;;;23.20;79.30;;;;;;4937368;29;20432;-79
2023/07/27 09:31:02;;;;;;;5.43;3.67;;;23.30;80.00;;;;;;4938344;29;20110;-79
2023/07/27 09:33:32;;;;;;;5.55;3.35;;;23.50;78.70;;;;;;4938090;29;20139;-82
2023/07/27 09:36:03;;;;;;;;;;;23.60;79.60;;;;;;4941273;29;20071;-80
2023/07/27 09:38:31;;;;;;;7.18;3.72;;;23.90;79.40;;;;;;4943426;29;20318;-80
2023/07/27 09:41:12;;;;;;;10.45;4.88;;;24.00;79.30;;;;;;4940126;29;20126;-83
2023/07/27 09:43:40;;;;;;;7.43;3.90;;;23.80;78.40;;;;;;4947338;29;20051;-79
2023/07/27 09:46:07;;;;;;;9.30;3.65;;;23.70;78.00;;;;;;4926546;29;20527;-78
2023/07/27 09:48:37;;;;;;;7.63;3.80;;;23.30;78.00;;;;;;4933317;29;20131;-78
2023/07/27 09:51:07;;;;;;;6.00;3.78;;;23.60;79.60;;;;;;4940260;29;20055;-79
2023/07/27 09:53:36;;;;;;;6.63;3.28;;;23.80;78.20;;;;;;4952776;28;20075;-80
2023/07/27 09:56:05;;;;;;;6.22;3.58;;;23.80;77.10;;;;;;4939318;29;20056;-77
2023/07/27 09:58:36;;;;;;;5.32;2.97;;;23.90;77.20;;;;;;4944050;29;20051;-80
2023/07/27 10:01:04;;;;;;;10.32;3.20;;;24.00;76.90;;;;;;4926368;29;20063;-81
2023/07/27 10:03:33;;;;;;;5.15;2.92;;;23.90;77.40;;;;;;4929284;29;20388;-80
2023/07/27 10:06:02;;;;;;;8.55;3.20;;;23.90;78.40;;;;;;4950278;29;20175;-79
2023/07/27 10:08:31;;;;;;;4.50;2.80;;;24.00;77.20;;;;;;4932074;29;20114;-78
2023/07/27 10:11:03;;;;;;;8.35;2.90;;;23.90;76.50;;;;;;4952290;29;20138;-80
2023/07/27 10:13:41;;;;;;;5.70;3.05;;;23.90;75.00;;;;;;4936149;29;20051;-78
2023/07/27 10:16:10;;;;;;;7.05;3.78;;;24.00;75.40;;;;;;4925594;29;20055;-80
2023/07/27 10:18:40;;;;;;;7.45;3.22;;;23.90;75.20;;;;;;4925419;29;20855;-81
2023/07/27 10:21:28;;;;;;;4.40;2.70;;;24.20;74.80;;;;;;4917127;29;20111;-79
2023/07/27 10:23:58;;;;;;;5.93;3.20;;;24.60;74.90;;;;;;4921168;29;20142;-77
2023/07/27 10:26:52;;;;;;;5.43;3.15;;;24.70;73.40;;;;;;4958519;29;20100;-78
2023/07/27 10:29:33;;;;;;;4.93;2.92;;;24.80;73.80;;;;;;4931171;29;20055;-82
2023/07/27 10:32:06;;;;;;;4.95;3.03;;;24.90;73.40;;;;;;4944292;29;20066;-80
2023/07/27 10:34:38;;;;;;;6.70;3.22;;;24.90;73.30;;;;;;4946710;29;20107;-86
2023/07/27 10:37:12;;;;;;;6.78;2.97;;;25.00;74.10;;;;;;4927030;29;20091;-83
2023/07/27 10:39:51;;;;;;;5.47;3.20;;;24.90;74.50;;;;;;4950943;29;20047;-80
2023/07/27 10:42:23;;;;;;;5.97;3.45;;;24.80;73.40;;;;;;4941207;29;20066;-79
2023/07/27 10:44:56;;;;;;;5.70;3.40;;;24.80;73.20;;;;;;4941293;29;20051;-80
2023/07/27 10:47:37;;;;;;;7.03;3.38;;;25.00;73.00;;;;;;4942936;29;20159;-82
2023/07/27 10:50:07;;;;;;;;;;;25.10;72.20;;;;;;4951134;29;20047;-78
2023/07/27 10:52:39;;;;;;;6.82;3.60;;;24.80;73.50;;;;;;4946726;29;20330;-80
2023/07/27 10:55:07;;;;;;;5.45;3.60;;;25.30;74.20;;;;;;4946525;28;20367;-80
2023/07/27 10:57:35;;;;;;;6.22;3.53;;;25.60;73.00;;;;;;4967082;28;20059;-78
2023/07/27 11:00:07;;;;;;;5.13;3.08;;;25.60;72.80;;;;;;4954438;29;20047;-78
2023/07/27 11:02:36;;;;;;;5.53;3.72;;;25.60;71.80;;;;;;4962396;28;20055;-78
2023/07/27 11:05:06;;;;;;;7.53;3.60;;;25.60;70.50;;;;;;4960190;28;20058;-78
2023/07/27 11:07:38;;;;;;;5.82;3.10;;;25.20;68.50;;;;;;4961262;28;20043;-76
2023/07/27 11:10:11;;;;;;;8.55;3.63;;;24.60;72.30;;;;;;4938484;29;20495;-76
2023/07/27 11:12:46;;;;;;;10.32;3.58;;;25.10;71.70;;;;;;4958609;28;20051;-76
2023/07/27 11:15:29;;;;;;;7.50;3.95;;;25.30;70.40;;;;;;4929595;28;20569;-76
2023/07/27 11:18:01;;;;;;;5.47;2.90;;;25.50;68.70;;;;;;4931344;28;20055;-74
2023/07/27 11:20:29;;;;;;;4.25;2.78;;;25.60;68.50;;;;;;4967925;28;20113;-77
2023/07/27 11:22:58;;;;;;;7.20;2.83;;;25.10;70.00;;;;;;4963541;28;20051;-75
2023/07/27 11:25:32;;;;;;;7.70;2.83;;;25.00;69.50;;;;;;4925630;29;20078;-77
2023/07/27 11:28:00;;;;;;;8.45;3.17;;;25.20;70.10;;;;;;4961012;28;20049;-74
2023/07/27 11:30:35;;;;;;;5.05;2.58;;;25.30;69.20;;;;;;4966259;28;20055;-76
2023/07/27 11:33:05;;;;;;;5.20;2.63;;;25.30;69.30;;;;;;4947049;29;20058;-75
2023/07/27 11:35:47;;;;;;;13.73;4.15;;;24.50;71.30;;;;;;4964014;28;20047;-80
2023/07/27 11:38:15;;;;;;;9.98;2.63;;;25.30;70.40;;;;;;4938151;29;20107;-78
2023/07/27 11:40:47;;;;;;;6.05;1.90;;;25.70;68.30;;;;;;4927986;29;20425;-81
2023/07/27 11:43:15;;;;;;;4.65;2.05;;;24.70;68.70;;;;;;4954358;29;20059;-77
2023/07/27 11:45:45;;;;;;;3.85;2.05;;;25.50;68.40;;;;;;4965866;28;20051;-75
2023/07/27 11:48:12;;;;;;;4.10;1.90;;;26.20;67.50;;;;;;4969706;28;20049;-76
2023/07/27 11:50:43;;;;;;;4.15;1.75;;;26.30;65.80;;;;;;4944408;28;20062;-76
2023/07/27 11:53:11;;;;;;;5.00;1.50;;;25.90;66.40;;;;;;4973412;28;20051;-77
2023/07/27 11:55:49;;;;;;;4.75;1.42;;;26.30;66.80;;;;;;4964399;28;20059;-79
2023/07/27 11:58:26;;;;;;;2.83;1.42;;;26.30;65.90;;;;;;4950155;28;20051;-80
2023/07/27 12:00:55;;;;;;;5.00;1.75;;;26.20;65.70;;;;;;4961730;28;20062;-77
2023/07/27 12:03:26;;;;;;;3.90;1.42;;;26.40;65.70;;;;;;4943323;28;20043;-77
2023/07/27 12:05:57;;;;;;;4.00;1.88;;;26.90;65.40;;;;;;4961983;28;20059;-77
2023/07/27 12:08:26;;;;;;;4.70;2.10;;;27.10;67.00;;;;;;4944355;29;20039;-76
2023/07/27 12:11:00;;;;;;;3.05;1.30;;;27.20;63.90;;;;;;4963052;28;20138;-78
2023/07/27 12:13:34;;;;;;;2.58;1.27;;;26.40;64.50;;;;;;4937176;28;20043;-80
2023/07/27 12:16:13;;;;;;;2.50;1.40;;;26.80;63.00;;;;;;4946333;29;20063;-77
2023/07/27 12:18:47;;;;;;;3.25;1.70;;;26.50;63.20;;;;;;4930609;28;20142;-77
2023/07/27 12:21:21;;;;;;;2.47;1.45;;;26.60;63.40;;;;;;4961785;29;20043;-76
2023/07/27 12:23:54;;;;;;;6.13;1.50;;;27.20;62.70;;;;;;4964075;28;20075;-78
2023/07/27 12:26:28;;;;;;;5.22;1.58;;;27.40;62.30;;;;;;4918615;29;20110;-76
2023/07/27 12:28:55;;;;;;;7.15;1.65;;;27.20;63.00;;;;;;4934598;29;20052;-76
2023/07/27 12:31:42;;;;;;;4.20;1.60;;;27.30;62.20;;;;;;4956439;28;20415;-77
2023/07/27 12:34:12;;;;;;;2.85;1.40;;;27.60;61.80;;;;;;4961888;28;20058;-75
2023/07/27 12:36:44;;;;;;;3.92;1.55;;;27.60;60.30;;;;;;4967317;28;20085;-76
2023/07/27 12:39:31;;;;;;;3.00;1.33;;;27.70;59.50;;;;;;4943655;29;20055;-77
2023/07/27 12:41:59;;;;;;;3.85;1.38;;;27.60;60.20;;;;;;4960591;28;20055;-77
2023/07/27 12:44:30;;;;;;;3.50;1.80;;;27.80;60.40;;;;;;4967335;28;20451;-76
2023/07/27 12:46:57;;;;;;;3.22;1.38;;;27.90;61.30;;;;;;4961793;28;20131;-75
2023/07/27 12:49:28;;;;;;;4.18;1.55;;;27.90;58.90;;;;;;4965312;28;20055;-77
2023/07/27 12:51:57;;;;;;;2.85;1.40;;;28.20;59.20;;;;;;4961273;28;20130;-77
2023/07/27 12:54:26;;;;;;;3.08;1.77;;;28.40;58.80;;;;;;4937076;29;20058;-78
2023/07/27 12:56:55;;;;;;;6.80;1.50;;;28.20;59.00;;;;;;4932500;29;20063;-75
2023/07/27 12:59:28;;;;;;;3.60;1.60;;;27.90;58.90;;;;;;4964265;28;20054;-77
2023/07/27 13:01:56;;;;;;;2.75;1.30;;;28.00;58.50;;;;;;4955584;28;20059;-76
2023/07/27 13:04:26;;;;;;;3.78;1.20;;;28.00;57.90;;;;;;4963816;28;20046;-78